createdAt,value
2022-12-08T00:00:08.229Z,22.1
2022-12-08T00:01:10.418Z,22.1
2022-12-08T00:02:13.211Z,21.8
2022-12-08T00:03:17.270Z,22.3
2022-12-08T00:04:20.967Z,22.4
2022-12-08T00:05:22.895Z,21.8
2022-12-08T00:06:25.085Z,22
2022-12-08T00:07:27.214Z,22
2022-12-08T00:08:29.126Z,22.2
2022-12-08T00:09:36.584Z,21.9
2022-12-08T00:10:51.531Z,22.2
2022-12-08T00:11:41.033Z,22.1
2022-12-08T00:12:43.502Z,22.2
2022-12-08T00:13:46.284Z,22.2
2022-12-08T00:14:48.768Z,22.1
2022-12-08T00:15:50.980Z,22.1
2022-12-08T00:16:52.979Z,22.1
2022-12-08T00:17:56.038Z,22.3
2022-12-08T00:18:58.608Z,22.4
2022-12-08T00:20:00.821Z,22.2
2022-12-08T00:21:03.294Z,22.2
2022-12-08T00:22:05.797Z,22.3
2022-12-08T00:23:07.717Z,22.2
2022-12-08T00:24:09.915Z,22.4
2022-12-08T00:25:12.093Z,22.2
2022-12-08T00:26:14.602Z,22.4
2022-12-08T00:27:16.782Z,22.4
2022-12-08T00:28:19.275Z,22.2
2022-12-08T00:29:21.764Z,22.2
2022-12-08T00:30:23.701Z,22.4
2022-12-08T00:31:26.269Z,22.2
2022-12-08T00:32:29.028Z,22.5
2022-12-08T00:33:31.561Z,22.3
2022-12-08T00:34:34.208Z,22.3
2022-12-08T00:35:40.128Z,22.4
2022-12-08T00:36:41.405Z,22.4
2022-12-08T00:37:43.887Z,22.4
2022-12-08T00:38:46.087Z,22.6
2022-12-08T00:39:48.569Z,22.4
2022-12-08T00:40:50.766Z,22.5
2022-12-08T00:41:53.252Z,22.5
2022-12-08T00:42:55.146Z,22.5
2022-12-08T00:43:57.652Z,22.4
2022-12-08T00:44:59.856Z,22.5
2022-12-08T00:46:02.175Z,22.5
2022-12-08T00:47:05.155Z,22.7
2022-12-08T00:48:07.627Z,22.5
2022-12-08T00:49:09.558Z,22.7
2022-12-08T00:50:12.136Z,22.5
2022-12-08T00:51:14.625Z,22.4
2022-12-08T00:52:16.558Z,22.6
2022-12-08T00:53:19.041Z,22.4
2022-12-08T00:54:21.537Z,22.3
2022-12-08T00:55:24.044Z,22.1
2022-12-08T00:56:26.531Z,22.7
2022-12-08T00:57:29.015Z,22.6
2022-12-08T00:58:31.217Z,22.5
2022-12-08T00:59:33.441Z,22.3
2022-12-08T01:00:35.952Z,22.6
2022-12-08T01:01:38.484Z,22.4
2022-12-08T01:02:41.535Z,22.6
2022-12-08T01:03:44.076Z,22.5
2022-12-08T01:04:47.007Z,22.5
2022-12-08T01:05:49.583Z,22.6
2022-12-08T01:06:52.047Z,22.5
2022-12-08T01:07:54.292Z,22.5
2022-12-08T01:08:56.940Z,22.6
2022-12-08T01:09:58.866Z,22.7
2022-12-08T01:11:01.108Z,22.6
2022-12-08T01:12:03.607Z,22.5
2022-12-08T01:13:05.536Z,22.7
2022-12-08T01:14:08.022Z,22.8
2022-12-08T01:15:10.501Z,22.7
2022-12-08T01:16:12.820Z,22.4
2022-12-08T01:17:15.543Z,22.6
2022-12-08T01:18:18.055Z,22.4
2022-12-08T01:19:20.244Z,22.5
2022-12-08T01:20:22.214Z,22.7
2022-12-08T01:21:24.775Z,22.3
2022-12-08T01:22:26.991Z,22.8
2022-12-08T01:23:29.230Z,22.5
2022-12-08T01:24:31.726Z,22.7
2022-12-08T01:25:34.215Z,22.8
2022-12-08T01:26:36.705Z,22.4
2022-12-08T01:27:39.201Z,22.5
2022-12-08T01:28:41.697Z,22.5
2022-12-08T01:29:44.188Z,22.7
2022-12-08T01:30:46.723Z,22.7
2022-12-08T01:31:49.238Z,22.5
2022-12-08T01:32:51.731Z,22.7
2022-12-08T01:33:54.205Z,22.5
2022-12-08T01:34:56.688Z,22.8
2022-12-08T01:35:59.194Z,22.6
2022-12-08T01:37:01.784Z,22.5
2022-12-08T01:38:03.984Z,22.4
2022-12-08T01:39:06.464Z,22.6
2022-12-08T01:40:08.956Z,22.6
2022-12-08T01:41:11.514Z,22.8
2022-12-08T01:42:13.996Z,22.4
2022-12-08T01:43:16.469Z,22.9
2022-12-08T01:44:18.649Z,22.6
2022-12-08T01:45:21.117Z,22.6
2022-12-08T01:46:23.390Z,22.7
2022-12-08T01:47:25.981Z,22.8
2022-12-08T01:48:28.260Z,22.7
2022-12-08T01:49:30.795Z,22.7
2022-12-08T01:50:32.741Z,22.6
2022-12-08T01:51:34.946Z,22.7
2022-12-08T01:52:37.535Z,22.7
2022-12-08T01:53:40.006Z,22.7
2022-12-08T01:54:42.561Z,22.9
2022-12-08T01:55:45.079Z,22.7
2022-12-08T01:56:47.552Z,22.7
2022-12-08T01:57:49.752Z,22.7
2022-12-08T01:58:51.960Z,22.7
2022-12-08T01:59:54.437Z,22.7
2022-12-08T02:00:56.708Z,22.7
2022-12-08T02:01:59.451Z,23
2022-12-08T02:03:02.429Z,22.6
2022-12-08T02:04:05.411Z,22.6
2022-12-08T02:05:07.346Z,22.4
2022-12-08T02:06:09.818Z,22.5
2022-12-08T02:07:12.335Z,22.7
2022-12-08T02:08:14.918Z,22.6
2022-12-08T02:09:17.870Z,22.6
2022-12-08T02:10:20.064Z,22.5
2022-12-08T02:11:21.996Z,22.6
2022-12-08T02:12:24.467Z,22.6
2022-12-08T02:13:26.677Z,22.7
2022-12-08T02:14:28.873Z,22.7
2022-12-08T02:15:31.372Z,22.8
2022-12-08T02:16:34.207Z,22.7
2022-12-08T02:17:36.110Z,22.8
2022-12-08T02:18:38.588Z,22.7
2022-12-08T02:19:41.067Z,22.6
2022-12-08T02:20:43.263Z,22.7
2022-12-08T02:21:45.744Z,22.7
2022-12-08T02:22:48.241Z,22.7
2022-12-08T02:23:50.800Z,23.2
2022-12-08T02:24:53.283Z,22.8
2022-12-08T02:25:55.762Z,22.6
2022-12-08T02:26:57.123Z,22.7
2022-12-08T02:27:59.604Z,22.9
2022-12-08T02:29:02.092Z,23
2022-12-08T02:30:04.596Z,22.9
2022-12-08T02:31:08.812Z,22.8
2022-12-08T02:32:11.688Z,22.6
2022-12-08T02:33:13.899Z,22.8
2022-12-08T02:34:16.405Z,22.2
2022-12-08T02:35:18.618Z,22.7
2022-12-08T02:36:20.805Z,23
2022-12-08T02:37:23.009Z,22.9
2022-12-08T02:38:25.501Z,22.8
2022-12-08T02:39:28.059Z,22.6
2022-12-08T02:40:30.545Z,22.6
2022-12-08T02:41:33.032Z,22.6
2022-12-08T02:42:35.508Z,22.7
2022-12-08T02:43:37.440Z,22.7
2022-12-08T02:44:39.920Z,22.7
2022-12-08T02:45:42.134Z,22.8
2022-12-08T02:46:44.712Z,22.9
2022-12-08T02:47:47.079Z,23.1
2022-12-08T02:48:49.016Z,23
2022-12-08T02:49:51.215Z,22.6
2022-12-08T02:50:53.450Z,22.8
2022-12-08T02:51:55.658Z,22.7
2022-12-08T02:52:57.594Z,22.9
2022-12-08T02:54:00.150Z,22.5
2022-12-08T02:55:02.747Z,22.7
2022-12-08T02:56:04.406Z,22.7
2022-12-08T02:57:06.886Z,22.5
2022-12-08T02:58:09.369Z,22.7
2022-12-08T02:59:11.562Z,22.7
2022-12-08T03:00:13.798Z,22.7
2022-12-08T03:01:16.321Z,22.9
2022-12-08T03:02:19.217Z,22.8
2022-12-08T03:03:22.100Z,22.7
2022-12-08T03:04:24.044Z,23
2022-12-08T03:05:26.528Z,22.5
2022-12-08T03:06:29.019Z,22.9
2022-12-08T03:07:31.501Z,22.8
2022-12-08T03:08:33.739Z,23
2022-12-08T03:09:35.983Z,22.8
2022-12-08T03:10:38.563Z,22.9
2022-12-08T03:11:40.749Z,22.5
2022-12-08T03:12:43.233Z,22.9
2022-12-08T03:13:45.442Z,23
2022-12-08T03:14:47.375Z,22.7
2022-12-08T03:15:49.899Z,22.9
2022-12-08T03:16:52.703Z,22.7
2022-12-08T03:17:54.905Z,22.6
2022-12-08T03:18:56.818Z,22.7
2022-12-08T03:19:59.036Z,22.7
2022-12-08T03:21:01.604Z,22.7
2022-12-08T03:22:04.078Z,22.5
2022-12-08T03:23:06.023Z,22.8
2022-12-08T03:24:07.933Z,22.7
2022-12-08T03:25:10.176Z,22.9
2022-12-08T03:26:12.750Z,22.5
2022-12-08T03:27:14.671Z,22.6
2022-12-08T03:28:17.053Z,22.9
2022-12-08T03:29:19.527Z,23
2022-12-08T03:30:22.050Z,22.6
2022-12-08T03:31:24.455Z,22.7
2022-12-08T03:32:27.474Z,22.5
2022-12-08T03:33:29.681Z,23.1
2022-12-08T03:34:32.182Z,22.9
2022-12-08T03:35:34.669Z,23.2
2022-12-08T03:36:37.178Z,23
2022-12-08T03:37:39.668Z,23
2022-12-08T03:38:41.600Z,22.5
2022-12-08T03:39:43.799Z,22.7
2022-12-08T03:40:46.311Z,22.8
2022-12-08T03:41:48.893Z,23.2
2022-12-08T03:42:51.096Z,22.7
2022-12-08T03:43:53.310Z,22.6
2022-12-08T03:44:55.241Z,23
2022-12-08T03:45:57.151Z,22.6
2022-12-08T03:46:59.580Z,22.5
2022-12-08T03:48:01.785Z,22.9
2022-12-08T03:49:04.277Z,22.8
2022-12-08T03:50:06.894Z,22.8
2022-12-08T03:51:09.336Z,22.8
2022-12-08T03:52:11.816Z,22.9
2022-12-08T03:53:14.034Z,22.8
2022-12-08T03:54:16.236Z,22.8
2022-12-08T03:55:18.152Z,23
2022-12-08T03:56:20.655Z,22.9
2022-12-08T03:57:23.228Z,23
2022-12-08T03:58:25.732Z,23
2022-12-08T03:59:32.676Z,22.9
2022-12-08T04:00:35.176Z,22.6
2022-12-08T04:01:37.510Z,22.9
2022-12-08T04:02:40.415Z,22.8
2022-12-08T04:03:43.037Z,23
2022-12-08T04:04:45.340Z,22.5
2022-12-08T04:05:47.822Z,22.9
2022-12-08T04:06:50.009Z,22.8
2022-12-08T04:07:52.241Z,22.9
2022-12-08T04:08:54.548Z,23
2022-12-08T04:09:56.488Z,23.1
2022-12-08T04:10:58.958Z,22.9
2022-12-08T04:12:01.192Z,22.7
2022-12-08T04:13:03.757Z,22.5
2022-12-08T04:14:05.982Z,23
2022-12-08T04:15:08.193Z,22.5
2022-12-08T04:16:10.443Z,22.8
2022-12-08T04:17:12.949Z,22.5
2022-12-08T04:18:15.159Z,23
2022-12-08T04:19:17.643Z,22.7
2022-12-08T04:20:20.131Z,22.9
2022-12-08T04:21:22.607Z,22.2
2022-12-08T04:22:25.116Z,22.2
2022-12-08T04:23:28.437Z,22.5
2022-12-08T04:24:30.368Z,22.6
2022-12-08T04:25:32.600Z,22.6
2022-12-08T04:26:34.793Z,22.4
2022-12-08T04:27:37.020Z,22.5
2022-12-08T04:28:39.581Z,22.6
2022-12-08T04:29:42.061Z,22.6
2022-12-08T04:30:44.298Z,22.6
2022-12-08T04:31:46.556Z,22.6
2022-12-08T04:32:49.430Z,22.5
2022-12-08T04:33:51.362Z,22.7
2022-12-08T04:34:53.576Z,22.5
2022-12-08T04:35:56.048Z,22.7
2022-12-08T04:36:57.971Z,22.5
2022-12-08T04:38:00.181Z,22.6
2022-12-08T04:39:02.675Z,22.4
2022-12-08T04:40:05.306Z,22.6
2022-12-08T04:41:08.855Z,22.7
2022-12-08T04:42:11.331Z,22.6
2022-12-08T04:43:13.012Z,22.6
2022-12-08T04:44:15.600Z,22.5
2022-12-08T04:45:18.132Z,22.4
2022-12-08T04:46:20.693Z,22.5
2022-12-08T04:47:23.597Z,22.5
2022-12-08T04:48:26.100Z,22.5
2022-12-08T04:49:28.571Z,22.5
2022-12-08T04:50:30.488Z,22.5
2022-12-08T04:51:32.974Z,22.5
2022-12-08T04:52:34.915Z,22.7
2022-12-08T04:53:39.078Z,22.7
2022-12-08T04:54:42.096Z,22.6
2022-12-08T04:55:44.573Z,22.6
2022-12-08T04:56:47.053Z,22.5
2022-12-08T04:57:49.526Z,22.6
2022-12-08T04:58:51.751Z,22.6
2022-12-08T04:59:54.307Z,22.6
2022-12-08T05:00:56.797Z,22.4
2022-12-08T05:01:59.801Z,22.6
2022-12-08T05:03:03.385Z,22.7
2022-12-08T05:04:06.300Z,22.6
2022-12-08T05:05:08.781Z,22.6
2022-12-08T05:06:11.348Z,22.5
2022-12-08T05:07:13.569Z,22.4
2022-12-08T05:08:16.153Z,22.3
2022-12-08T05:09:18.777Z,22.5
2022-12-08T05:10:21.261Z,22.4
2022-12-08T05:11:23.204Z,22.3
2022-12-08T05:12:25.744Z,22.5
2022-12-08T05:13:28.229Z,22.4
2022-12-08T05:14:30.462Z,22.5
2022-12-08T05:15:33.052Z,22.5
2022-12-08T05:16:35.289Z,22.4
2022-12-08T05:17:38.257Z,22.4
2022-12-08T05:18:39.916Z,22.5
2022-12-08T05:19:42.395Z,22.6
2022-12-08T05:20:44.899Z,22.6
2022-12-08T05:21:47.374Z,22.3
2022-12-08T05:22:49.316Z,22.4
2022-12-08T05:23:51.233Z,22.4
2022-12-08T05:24:53.431Z,22.5
2022-12-08T05:25:55.633Z,22.4
2022-12-08T05:26:57.832Z,22.4
2022-12-08T05:28:17.927Z,22.6
2022-12-08T05:29:05.041Z,22.6
2022-12-08T05:30:07.485Z,22.5
2022-12-08T05:31:10.288Z,22.4
2022-12-08T05:32:12.612Z,22.4
2022-12-08T05:33:14.545Z,22.5
2022-12-08T05:34:17.037Z,22.4
2022-12-08T05:35:19.238Z,22.4
2022-12-08T05:36:21.738Z,22.4
2022-12-08T05:37:23.674Z,22.3
2022-12-08T05:38:26.153Z,22.4
2022-12-08T05:39:28.654Z,22.4
2022-12-08T05:40:31.188Z,22.4
2022-12-08T05:41:33.401Z,22.4
2022-12-08T05:42:35.594Z,22.5
2022-12-08T05:43:38.081Z,22.4
2022-12-08T05:44:40.383Z,22.4
2022-12-08T05:45:42.946Z,22.3
2022-12-08T05:46:46.045Z,22.4
2022-12-08T05:47:48.537Z,22.4
2022-12-08T05:48:50.754Z,22.4
2022-12-08T05:49:53.278Z,22.4
2022-12-08T05:50:55.487Z,22.3
2022-12-08T05:51:57.969Z,22.4
2022-12-08T05:53:00.183Z,22.3
2022-12-08T05:54:02.666Z,22.2
2022-12-08T05:55:04.865Z,22.3
2022-12-08T05:56:07.403Z,22.3
2022-12-08T05:57:09.977Z,22.3
2022-12-08T05:58:12.459Z,22.3
2022-12-08T05:59:14.946Z,22.4
2022-12-08T06:00:17.188Z,22.2
2022-12-08T06:01:19.702Z,22.3
2022-12-08T06:02:22.582Z,22.3
2022-12-08T06:03:25.835Z,22.3
2022-12-08T06:04:28.756Z,22.4
2022-12-08T06:05:31.254Z,22.3
2022-12-08T06:06:33.746Z,22.4
2022-12-08T06:07:36.229Z,22.2
2022-12-08T06:08:38.731Z,22.2
2022-12-08T06:09:40.935Z,22.2
2022-12-08T06:10:43.145Z,22.2
2022-12-08T06:11:45.741Z,22.3
2022-12-08T06:12:47.945Z,22.2
2022-12-08T06:13:50.437Z,22.2
2022-12-08T06:14:52.926Z,22.3
2022-12-08T06:15:55.161Z,22.2
2022-12-08T06:16:57.710Z,22.3
2022-12-08T06:18:00.755Z,22.3
2022-12-08T06:19:02.957Z,22.2
2022-12-08T06:20:05.217Z,22.2
2022-12-08T06:21:08.708Z,22.2
2022-12-08T06:22:10.637Z,22.4
2022-12-08T06:23:13.126Z,22.3
2022-12-08T06:24:15.615Z,22.2
2022-12-08T06:25:17.531Z,22.3
2022-12-08T06:26:19.733Z,22.4
2022-12-08T06:27:22.231Z,22.3
2022-12-08T06:28:24.440Z,22.3
2022-12-08T06:29:26.708Z,22.3
2022-12-08T06:30:28.930Z,22.3
2022-12-08T06:31:31.201Z,22.3
2022-12-08T06:32:33.928Z,22.3
2022-12-08T06:33:36.787Z,22.2
2022-12-08T06:34:39.275Z,22.3
2022-12-08T06:35:41.768Z,22.2
2022-12-08T06:36:44.273Z,22.2
2022-12-08T06:37:46.458Z,22.3
2022-12-08T06:38:48.708Z,22.2
2022-12-08T06:39:50.928Z,22.2
2022-12-08T06:40:53.155Z,22.2
2022-12-08T06:41:55.086Z,22.3
2022-12-08T06:42:57.305Z,22.3
2022-12-08T06:43:59.487Z,22.2
2022-12-08T06:45:01.437Z,22.3
2022-12-08T06:46:03.387Z,22.3
2022-12-08T06:47:06.009Z,22.2
2022-12-08T06:48:07.963Z,22.2
2022-12-08T06:49:10.540Z,22.3
2022-12-08T06:50:13.025Z,22.2
2022-12-08T06:51:15.624Z,22.4
2022-12-08T06:52:18.196Z,22.3
2022-12-08T06:53:20.125Z,22.2
2022-12-08T06:54:22.335Z,22.3
2022-12-08T06:55:51.198Z,22.2
2022-12-08T06:56:29.805Z,22.3
2022-12-08T06:57:32.282Z,22.3
2022-12-08T06:58:34.769Z,22.3
2022-12-08T06:59:36.706Z,22.3
2022-12-08T07:00:38.634Z,22.2
2022-12-08T07:01:41.213Z,22.2
2022-12-08T07:02:44.030Z,22.4
2022-12-08T07:03:47.243Z,22.3
2022-12-08T07:04:49.870Z,22.3
2022-12-08T07:05:51.888Z,22.2
2022-12-08T07:06:54.112Z,22.4
2022-12-08T07:07:56.393Z,22.3
2022-12-08T07:08:59.102Z,22.4
2022-12-08T07:10:01.804Z,22.1
2022-12-08T07:11:06.267Z,22.3
2022-12-08T07:12:08.476Z,22.2
2022-12-08T07:13:10.984Z,22.3
2022-12-08T07:14:12.935Z,22.3
2022-12-08T07:15:15.241Z,22.2
2022-12-08T07:16:17.820Z,22.3
2022-12-08T07:17:20.504Z,22.3
2022-12-08T07:18:22.724Z,22.3
2022-12-08T07:19:25.240Z,22.2
2022-12-08T07:20:27.948Z,22.2
2022-12-08T07:21:30.929Z,22.2
2022-12-08T07:22:33.411Z,22.1
2022-12-08T07:23:35.926Z,22.2
2022-12-08T07:25:55.316Z,22.2
2022-12-08T07:26:57.789Z,22.2
2022-12-08T07:28:00.003Z,22.1
2022-12-08T07:29:01.940Z,22.2
2022-12-08T07:30:04.437Z,22.3
2022-12-08T07:31:08.003Z,22.2
2022-12-08T07:32:11.029Z,22.2
2022-12-08T07:33:13.217Z,22
2022-12-08T07:34:15.724Z,22.2
2022-12-08T07:35:18.253Z,22.2
2022-12-08T07:36:20.842Z,22.3
2022-12-08T07:37:23.369Z,22.2
2022-12-08T07:38:25.584Z,22.2
2022-12-08T07:39:28.078Z,22.3
2022-12-08T07:40:30.552Z,22.1
2022-12-08T07:41:33.042Z,22.3
2022-12-08T07:42:35.243Z,22
2022-12-08T07:43:37.733Z,22.3
2022-12-08T07:44:39.942Z,22.1
2022-12-08T07:45:42.258Z,22.3
2022-12-08T07:46:44.998Z,22.2
2022-12-08T07:47:47.612Z,22.2
2022-12-08T07:48:50.129Z,22
2022-12-08T07:49:52.629Z,22.3
2022-12-08T07:50:54.880Z,22.2
2022-12-08T07:51:57.486Z,22.2
2022-12-08T07:52:59.700Z,22.3
2022-12-08T07:54:02.065Z,22.3
2022-12-08T07:55:04.576Z,22.1
2022-12-08T07:56:07.070Z,22.2
2022-12-08T07:57:09.564Z,22.2
2022-12-08T07:58:11.778Z,22.2
2022-12-08T07:59:13.989Z,22.2
2022-12-08T08:00:16.491Z,22
2022-12-08T08:01:18.772Z,22.2
2022-12-08T08:02:24.622Z,22.2
2022-12-08T08:03:26.831Z,22.1
2022-12-08T08:04:29.093Z,22.1
2022-12-08T08:05:31.925Z,22.2
2022-12-08T08:06:34.453Z,22.2
2022-12-08T08:07:37.091Z,22.3
2022-12-08T08:08:39.285Z,22.3
2022-12-08T08:09:41.492Z,22.2
2022-12-08T08:10:43.713Z,22.1
2022-12-08T08:12:01.249Z,22.2
2022-12-08T08:12:51.187Z,22
2022-12-08T08:13:53.711Z,22.3
2022-12-08T08:14:56.212Z,22.4
2022-12-08T08:15:58.566Z,22.1
2022-12-08T08:17:01.647Z,22.3
2022-12-08T08:18:04.725Z,22.1
2022-12-08T08:19:06.929Z,22
2022-12-08T08:20:08.855Z,22.3
2022-12-08T08:22:16.118Z,22.2
2022-12-08T08:23:18.729Z,22.2
2022-12-08T08:24:20.971Z,22
2022-12-08T08:25:23.456Z,22.1
2022-12-08T08:26:25.981Z,22.2
2022-12-08T08:27:28.476Z,22.3
2022-12-08T08:28:30.459Z,22.3
2022-12-08T08:29:32.677Z,22.2
2022-12-08T08:30:35.280Z,22.2
2022-12-08T08:31:37.850Z,22.2
2022-12-08T08:32:40.992Z,22.2
2022-12-08T08:33:43.476Z,22.2
2022-12-08T08:34:45.679Z,22.2
2022-12-08T08:35:47.330Z,22.3
2022-12-08T08:36:49.012Z,22.2
2022-12-08T08:37:51.952Z,22.2
2022-12-08T08:38:54.539Z,22.3
2022-12-08T08:39:56.170Z,22.3
2022-12-08T08:40:58.679Z,22.2
2022-12-08T08:42:01.390Z,22.1
2022-12-08T08:43:03.308Z,22.1
2022-12-08T08:44:05.796Z,22.3
2022-12-08T08:45:08.027Z,22.2
2022-12-08T08:46:10.573Z,22.2
2022-12-08T08:47:12.964Z,22
2022-12-08T08:48:15.165Z,22.2
2022-12-08T08:49:17.398Z,22.2
2022-12-08T08:50:19.635Z,22.2
2022-12-08T08:51:21.838Z,22.3
2022-12-08T08:52:24.045Z,22.1
2022-12-08T08:53:26.591Z,22.3
2022-12-08T08:54:29.192Z,22.4
2022-12-08T08:55:31.701Z,22.3
2022-12-08T08:56:33.895Z,22.2
2022-12-08T08:57:35.820Z,22.3
2022-12-08T08:58:37.725Z,22
2022-12-08T08:59:40.224Z,22.2
2022-12-08T09:00:42.457Z,22.3
2022-12-08T09:01:44.714Z,22
2022-12-08T09:02:47.382Z,22.2
2022-12-08T09:03:49.581Z,22.2
2022-12-08T09:04:52.115Z,22.3
2022-12-08T09:05:55.108Z,22.2
2022-12-08T09:06:58.030Z,22.1
2022-12-08T09:08:00.559Z,22
2022-12-08T09:09:03.456Z,22
2022-12-08T09:10:06.350Z,22
2022-12-08T09:11:10.147Z,22.3
2022-12-08T09:12:12.386Z,22.2
2022-12-08T09:13:14.869Z,22.1
2022-12-08T09:14:16.819Z,22.2
2022-12-08T09:15:19.048Z,22.2
2022-12-08T09:16:21.583Z,22.1
2022-12-08T09:17:24.254Z,22.1
2022-12-08T09:18:26.466Z,22.3
2022-12-08T09:19:28.401Z,22.1
2022-12-08T09:20:30.924Z,22.2
2022-12-08T09:21:33.203Z,22.2
2022-12-08T09:22:35.168Z,22.1
2022-12-08T09:23:37.374Z,22.1
2022-12-08T09:24:39.646Z,22.1
2022-12-08T09:25:42.219Z,22.1
2022-12-08T09:26:44.447Z,22
2022-12-08T09:27:46.398Z,22.1
2022-12-08T09:28:48.631Z,22.1
2022-12-08T09:29:51.123Z,22.3
2022-12-08T09:30:53.633Z,22.3
2022-12-08T09:31:56.569Z,22
2022-12-08T09:32:59.259Z,22.2
2022-12-08T09:34:01.567Z,22
2022-12-08T09:35:04.107Z,22.2
2022-12-08T09:36:06.039Z,22.2
2022-12-08T09:37:08.290Z,22.1
2022-12-08T09:38:10.589Z,22.1
2022-12-08T09:39:12.818Z,22.1
2022-12-08T09:40:15.078Z,22.3
2022-12-08T09:41:17.746Z,22
2022-12-08T09:42:19.717Z,22
2022-12-08T09:43:22.241Z,22.1
2022-12-08T09:44:24.522Z,22
2022-12-08T09:45:27.071Z,22.2
2022-12-08T09:46:28.850Z,21.9
2022-12-08T09:47:35.676Z,22.1
2022-12-08T09:48:36.696Z,22.2
2022-12-08T09:49:38.640Z,22.2
2022-12-08T09:50:40.874Z,22.1
2022-12-08T09:51:43.105Z,22.2
2022-12-08T09:52:45.607Z,22.2
2022-12-08T09:53:48.092Z,22.2
2022-12-08T09:54:50.926Z,22.1
2022-12-08T09:55:53.133Z,22.1
2022-12-08T09:56:55.722Z,22.2
2022-12-08T09:57:57.983Z,22.2
2022-12-08T09:59:00.677Z,22
2022-12-08T10:00:03.423Z,22.2
2022-12-08T10:01:08.004Z,22.1
2022-12-08T10:02:10.548Z,22.1
2022-12-08T10:03:16.546Z,22.1
2022-12-08T10:04:18.452Z,22.2
2022-12-08T10:05:21.051Z,22.1
2022-12-08T10:06:23.497Z,22.1
2022-12-08T10:07:25.486Z,22.1
2022-12-08T10:08:27.796Z,22.2
2022-12-08T10:09:30.874Z,22
2022-12-08T10:10:33.374Z,22.2
2022-12-08T10:11:35.605Z,22
2022-12-08T10:12:38.186Z,22.2
2022-12-08T10:13:40.390Z,22.1
2022-12-08T10:14:42.892Z,22
2022-12-08T10:15:45.459Z,22.1
2022-12-08T10:16:48.285Z,22
2022-12-08T10:17:50.931Z,22
2022-12-08T10:18:53.442Z,22.1
2022-12-08T10:19:55.406Z,22.2
2022-12-08T10:20:57.628Z,22.2
2022-12-08T10:22:00.113Z,22
2022-12-08T10:23:02.321Z,22.1
2022-12-08T10:24:04.534Z,22.1
2022-12-08T10:25:06.758Z,22.1
2022-12-08T10:26:09.240Z,22.1
2022-12-08T10:27:11.203Z,21.9
2022-12-08T10:28:13.834Z,22.2
2022-12-08T10:29:16.337Z,22.1
2022-12-08T10:30:18.881Z,22.2
2022-12-08T10:31:21.619Z,22.2
2022-12-08T10:32:24.413Z,22.1
2022-12-08T10:33:26.906Z,22
2022-12-08T10:34:29.411Z,22.2
2022-12-08T10:35:31.909Z,22.2
2022-12-08T10:36:34.396Z,22.2
2022-12-08T10:37:36.883Z,22.2
2022-12-08T10:38:39.365Z,22.1
2022-12-08T10:39:41.592Z,22.2
2022-12-08T10:40:45.691Z,22.2
2022-12-08T10:41:48.348Z,22.1
2022-12-08T10:42:50.859Z,22
2022-12-08T10:43:53.519Z,22.2
2022-12-08T10:44:55.739Z,22.1
2022-12-08T10:45:57.958Z,22.2
2022-12-08T10:47:00.461Z,22.1
2022-12-08T10:48:03.179Z,22.1
2022-12-08T10:49:04.848Z,22.2
2022-12-08T10:50:07.599Z,22.1
2022-12-08T10:51:10.102Z,22.2
2022-12-08T10:52:12.576Z,22.1
2022-12-08T10:53:15.085Z,21.9
2022-12-08T10:54:21.827Z,22.2
2022-12-08T10:55:22.276Z,22.2
2022-12-08T10:56:24.260Z,22.1
2022-12-08T10:57:26.830Z,22.1
2022-12-08T10:58:29.099Z,22.1
2022-12-08T10:59:31.952Z,22.2
2022-12-08T11:00:34.653Z,21.9
2022-12-08T11:01:37.713Z,22.1
2022-12-08T11:02:41.198Z,21.9
2022-12-08T11:03:43.756Z,22.1
2022-12-08T11:04:45.953Z,22
2022-12-08T11:05:48.177Z,22.1
2022-12-08T11:06:50.660Z,21.9
2022-12-08T11:07:52.962Z,22.1
2022-12-08T11:08:55.420Z,22.1
2022-12-08T11:09:57.648Z,22
2022-12-08T11:10:59.569Z,21.9
2022-12-08T11:12:02.072Z,21.9
2022-12-08T11:13:04.275Z,22
2022-12-08T11:14:06.519Z,22
2022-12-08T11:15:09.146Z,22
2022-12-08T11:16:11.457Z,22.2
2022-12-08T11:17:14.094Z,22.1
2022-12-08T11:18:16.579Z,22
2022-12-08T11:19:18.524Z,22.1
2022-12-08T11:20:20.484Z,22
2022-12-08T11:21:22.699Z,22
2022-12-08T11:22:25.236Z,22.2
2022-12-08T11:23:27.460Z,22
2022-12-08T11:24:33.481Z,22.1
2022-12-08T11:25:35.000Z,21.9
2022-12-08T11:26:37.188Z,22
2022-12-08T11:27:39.390Z,22.1
2022-12-08T11:28:41.326Z,22
2022-12-08T11:29:43.293Z,22.1
2022-12-08T11:30:45.886Z,22.1
2022-12-08T11:31:48.142Z,21.9
2022-12-08T11:32:50.978Z,22
2022-12-08T11:33:53.514Z,22.1
2022-12-08T11:34:56.016Z,22.1
2022-12-08T11:35:57.958Z,22
2022-12-08T11:37:00.440Z,22
2022-12-08T11:38:13.614Z,21.9
2022-12-08T11:39:07.924Z,22
2022-12-08T11:40:10.429Z,22.1
2022-12-08T11:41:16.264Z,22
2022-12-08T11:42:17.616Z,21.9
2022-12-08T11:43:19.818Z,21.9
2022-12-08T11:44:21.738Z,22
2022-12-08T11:45:24.282Z,21.9
2022-12-08T11:46:26.941Z,22
2022-12-08T11:47:29.612Z,22
2022-12-08T11:48:31.547Z,22
2022-12-08T11:49:34.043Z,21.9
2022-12-08T11:50:36.546Z,22.1
2022-12-08T11:51:38.751Z,22.1
2022-12-08T11:52:40.984Z,22
2022-12-08T11:53:43.457Z,22
2022-12-08T11:54:45.955Z,22
2022-12-08T11:55:50.168Z,21.8
2022-12-08T11:56:52.481Z,22.1
2022-12-08T11:57:54.141Z,22
2022-12-08T11:58:57.053Z,21.9
2022-12-08T11:59:59.234Z,22
2022-12-08T12:01:01.463Z,22
2022-12-08T12:02:04.114Z,22
2022-12-08T12:03:07.065Z,22.1
2022-12-08T12:04:09.274Z,21.9
2022-12-08T12:05:11.767Z,22
2022-12-08T12:06:37.964Z,22
2022-12-08T12:07:25.947Z,22.1
2022-12-08T12:08:25.941Z,21.9
2022-12-08T12:09:28.666Z,22
2022-12-08T12:10:31.145Z,22
2022-12-08T12:11:33.628Z,22
2022-12-08T12:12:39.592Z,22
2022-12-08T12:13:40.820Z,21.9
2022-12-08T12:14:43.335Z,22.1
2022-12-08T12:15:45.550Z,22
2022-12-08T12:16:47.861Z,22
2022-12-08T12:17:50.865Z,22
2022-12-08T12:18:53.358Z,21.9
2022-12-08T12:19:55.845Z,21.9
2022-12-08T12:20:58.328Z,21.9
2022-12-08T12:22:00.246Z,22.1
2022-12-08T12:23:02.450Z,21.9
2022-12-08T12:24:04.972Z,22
2022-12-08T12:25:07.463Z,22.1
2022-12-08T12:26:09.950Z,21.9
2022-12-08T12:27:12.482Z,22
2022-12-08T12:28:15.179Z,22
2022-12-08T12:29:16.816Z,22
2022-12-08T12:30:19.055Z,21.9
2022-12-08T12:31:21.315Z,21.9
2022-12-08T12:32:23.762Z,21.9
2022-12-08T12:33:26.330Z,22
2022-12-08T12:34:28.829Z,22.1
2022-12-08T12:35:31.017Z,22
2022-12-08T12:36:33.521Z,22
2022-12-08T12:37:35.182Z,22
2022-12-08T12:38:37.696Z,22.1
2022-12-08T12:39:39.617Z,21.9
2022-12-08T12:40:42.098Z,22
2022-12-08T12:41:44.017Z,22
2022-12-08T12:42:45.953Z,22
2022-12-08T12:43:48.150Z,22.1
2022-12-08T12:44:50.365Z,21.9
2022-12-08T12:45:52.857Z,22
2022-12-08T12:46:55.102Z,22
2022-12-08T12:47:57.615Z,22.1
2022-12-08T12:49:00.195Z,22.1
2022-12-08T12:50:01.685Z,22
2022-12-08T12:51:05.900Z,22
2022-12-08T12:52:08.109Z,22.1
2022-12-08T12:53:13.797Z,21.9
2022-12-08T12:54:14.757Z,22
2022-12-08T12:55:17.263Z,21.9
2022-12-08T12:56:19.478Z,21.8
2022-12-08T12:57:21.690Z,21.9
2022-12-08T12:58:23.649Z,22.1
2022-12-08T12:59:26.062Z,22
2022-12-08T13:00:28.539Z,22
2022-12-08T13:01:30.818Z,21.9
2022-12-08T13:02:33.785Z,22
2022-12-08T13:03:36.447Z,22
2022-12-08T13:04:39.033Z,22
2022-12-08T13:05:41.267Z,22
2022-12-08T13:06:43.760Z,22
2022-12-08T13:07:46.007Z,22
2022-12-08T13:08:48.291Z,21.9
2022-12-08T13:09:50.492Z,21.9
2022-12-08T13:10:52.981Z,21.9
2022-12-08T13:11:55.203Z,22
2022-12-08T13:12:57.428Z,22.2
2022-12-08T13:13:59.931Z,22
2022-12-08T13:15:02.164Z,21.9
2022-12-08T13:16:12.847Z,22
2022-12-08T13:17:09.741Z,22.1
2022-12-08T13:18:12.917Z,21.9
2022-12-08T13:19:15.433Z,21.9
2022-12-08T13:20:18.071Z,21.9
2022-12-08T13:21:20.017Z,21.9
2022-12-08T13:22:22.667Z,22
2022-12-08T13:23:24.950Z,22
2022-12-08T13:24:27.136Z,21.9
2022-12-08T13:25:33.872Z,22
2022-12-08T13:26:34.643Z,21.9
2022-12-08T13:27:36.554Z,22.1
2022-12-08T13:28:39.050Z,22.1
2022-12-08T13:29:41.548Z,22
2022-12-08T13:30:44.123Z,22
2022-12-08T13:31:50.849Z,22.1
2022-12-08T13:33:56.819Z,21.9
2022-12-08T13:34:59.345Z,22
2022-12-08T13:36:02.224Z,22
2022-12-08T13:37:04.730Z,22
2022-12-08T13:38:07.228Z,22.1
2022-12-08T13:39:09.720Z,22
2022-12-08T13:40:12.220Z,22.1
2022-12-08T13:41:14.414Z,22
2022-12-08T13:42:16.915Z,22
2022-12-08T13:43:19.110Z,22
2022-12-08T13:45:03.868Z,22.1
2022-12-08T13:45:59.395Z,21.9
2022-12-08T13:48:06.224Z,22
2022-12-08T13:50:55.628Z,21.9
2022-12-08T13:57:08.849Z,21.9
2022-12-08T13:57:59.727Z,22
2022-12-08T13:59:02.296Z,21.9
2022-12-08T14:00:04.512Z,22
2022-12-08T14:01:06.517Z,22.1
2022-12-08T14:02:09.080Z,22.1
2022-12-08T14:03:11.960Z,22
2022-12-08T14:04:37.393Z,22.1
2022-12-08T14:05:23.736Z,21.9
2022-12-08T14:06:24.406Z,21.9
2022-12-08T14:07:26.607Z,22
2022-12-08T14:08:57.332Z,22.1
2022-12-08T14:09:34.071Z,22
2022-12-08T14:10:36.316Z,22
2022-12-08T14:11:38.507Z,22.1
2022-12-08T14:12:40.766Z,22